Time;durP1;ratioP1;P1;durP2;ratioP2;P2;SDS_P1;SDS_P2;PMS_P1;PMS_P2;Temp;Humidity;BMP_temperature;BMP_pressure;BME280_temperature;BME280_humidity;BME280_pressure;Samples;Min_cycle;Max_cycle;Signal;HPM_P1;HPM_P2
2022/11/21 00:01:24;;;;;;;8.73;5.70;;;;;;;4.83;93.62;96887.37;1606828;87;20994;-81
2022/11/21 00:03:51;;;;;;;9.90;5.42;;;;;;;4.81;93.45;96890.49;1602202;89;21030;-82
2022/11/21 00:06:18;;;;;;;7.65;5.58;;;;;;;4.74;93.77;96886.68;1618889;88;21057;-81
2022/11/21 00:08:46;;;;;;;10.32;5.97;;;;;;;4.71;93.78;96883.27;1613030;88;21100;-81
2022/11/21 00:11:14;;;;;;;8.23;5.00;;;;;;;4.72;94.32;96888.93;1618763;88;21006;-81
2022/11/21 00:13:42;;;;;;;10.15;6.42;;;;;;;4.69;94.31;96884.62;1618742;88;21002;-81
2022/11/21 00:16:12;;;;;;;9.60;6.50;;;;;;;4.67;94.31;96882.49;1617962;88;21018;-79
2022/11/21 00:18:40;;;;;;;9.78;6.25;;;;;;;4.67;94.33;96881.18;1617114;88;21052;-81
2022/11/21 00:21:17;;;;;;;11.83;7.33;;;;;;;4.63;94.39;96878.21;1598326;88;21107;-83
2022/11/21 00:23:46;;;;;;;14.33;8.95;;;;;;;4.62;94.67;96879.12;1617736;87;21049;-81
2022/11/21 00:26:15;;;;;;;13.30;8.88;;;;;;;4.61;94.76;96881.34;1618406;88;21063;-83
2022/11/21 00:28:48;;;;;;;12.28;8.75;;;;;;;4.64;94.62;96878.62;1615934;88;21122;-84
2022/11/21 00:31:20;;;;;;;10.13;7.53;;;;;;;4.66;95.01;96869.41;1607954;88;21123;-82
2022/11/21 00:33:47;;;;;;;11.12;7.55;;;;;;;4.67;95.72;96868.05;1598689;89;21053;-83
2022/11/21 00:36:13;;;;;;;9.93;6.00;;;;;;;4.69;95.22;96862.31;1613816;89;21033;-83
2022/11/21 00:38:40;;;;;;;7.33;4.83;;;;;;;4.71;95.27;96855.72;1614305;88;21030;-82
2022/11/21 00:41:07;;;;;;;7.75;4.20;;;;;;;4.73;95.15;96855.22;1572072;91;21059;-84
2022/11/21 00:43:34;;;;;;;7.53;5.00;;;;;;;4.72;95.11;96846.50;1614587;89;21392;-83
2022/11/21 00:46:01;;;;;;;7.17;5.00;;;;;;;4.77;95.22;96849.00;1568547;90;21135;-82
2022/11/21 00:48:29;;;;;;;8.58;6.15;;;;;;;4.80;95.33;96850.68;1613302;89;21006;-85
2022/11/21 00:50:56;;;;;;;9.08;6.33;;;;;;;4.80;95.44;96845.43;1571258;91;21080;-83
2022/11/21 00:53:23;;;;;;;10.72;7.55;;;;;;;4.82;95.58;96845.80;1642494;87;21060;-83
2022/11/21 00:55:50;;;;;;;9.90;6.85;;;;;;;4.84;96.09;96852.33;1646076;87;21067;-82
2022/11/21 00:58:16;;;;;;;11.68;7.12;;;;;;;4.82;96.29;96854.98;1647134;87;20984;-82
2022/11/21 01:00:42;;;;;;;10.23;7.53;;;;;;;4.83;96.46;96854.55;1647022;87;21084;-82
2022/11/21 01:03:09;;;;;;;9.20;6.30;;;;;;;4.82;96.27;96862.86;1642955;86;20972;-79
2022/11/21 01:05:35;;;;;;;7.67;5.80;;;;;;;4.80;96.45;96844.99;1645906;87;21036;-78
2022/11/21 01:08:02;;;;;;;8.58;6.15;;;;;;;4.78;96.26;96845.50;1646964;87;21020;-79
2022/11/21 01:10:28;;;;;;;9.85;5.67;;;;;;;4.78;96.37;96840.68;1646661;87;21031;-81
2022/11/21 01:12:55;;;;;;;7.53;5.10;;;;;;;4.77;96.35;96845.05;1646860;87;21024;-81
2022/11/21 01:15:21;;;;;;;8.45;5.65;;;;;;;4.78;96.50;96839.37;1647081;87;21079;-81
2022/11/21 01:17:51;;;;;;;8.20;5.35;;;;;;;4.77;96.49;96842.91;1643182;87;21024;-84
2022/11/21 01:20:17;;;;;;;6.05;4.78;;;;;;;4.80;96.95;96833.18;1636920;86;21430;-83
2022/11/21 01:22:43;;;;;;;6.53;4.60;;;;;;;4.87;97.61;96831.27;1617084;88;21005;-84
2022/11/21 01:25:10;;;;;;;7.53;4.90;;;;;;;4.91;97.42;96822.41;1637529;87;21000;-84
2022/11/21 01:27:36;;;;;;;7.40;4.65;;;;;;;4.95;97.11;96829.75;1629869;87;20962;-83
2022/11/21 01:30:05;;;;;;;5.75;3.90;;;;;;;4.98;96.87;96829.22;1632478;88;21028;-83
2022/11/21 01:32:32;;;;;;;4.75;3.35;;;;;;;5.01;96.89;96829.58;1633382;87;21036;-83
2022/11/21 01:34:59;;;;;;;5.05;3.72;;;;;;;5.01;96.11;96833.52;1637965;88;21031;-83
2022/11/21 01:37:25;;;;;;;5.78;3.98;;;;;;;5.02;96.25;96815.55;1637689;88;21041;-83
2022/11/21 01:39:52;;;;;;;4.92;2.98;;;;;;;5.03;96.20;96813.36;1638143;88;21081;-83
2022/11/21 01:42:20;;;;;;;3.83;2.60;;;;;;;5.03;96.01;96805.48;1637946;87;21025;-83
2022/11/21 01:44:53;;;;;;;4.22;2.40;;;;;;;5.04;95.80;96788.81;1637891;87;21088;-83
2022/11/21 01:47:21;;;;;;;4.70;2.17;;;;;;;5.04;95.53;96781.38;1637917;87;21024;-83
2022/11/21 01:49:52;;;;;;;3.55;2.33;;;;;;;5.02;95.59;96778.78;1638004;87;21466;-78
2022/11/21 01:52:29;;;;;;;3.17;2.12;;;;;;;5.00;95.01;96788.04;1629073;87;21047;-79
2022/11/21 01:55:06;;;;;;;3.37;1.62;;;;;;;4.97;95.26;96790.73;1589140;90;21069;-78
2022/11/21 01:57:48;;;;;;;1.82;1.10;;;;;;;4.97;95.06;96785.92;1587636;90;20963;-78
2022/11/21 02:00:25;;;;;;;1.67;1.07;;;;;;;4.98;94.96;96783.27;1598102;90;21025;-78
2022/11/21 02:02:56;;;;;;;1.50;1.10;;;;;;;4.95;94.65;96775.92;1614342;89;21058;-78
2022/11/21 02:05:27;;;;;;;2.20;1.10;;;;;;;4.88;94.28;96773.47;1584403;90;21395;-77
2022/11/21 02:07:59;;;;;;;1.62;1.40;;;;;;;4.84;94.56;96767.89;1614084;89;21351;-77
2022/11/21 02:10:27;;;;;;;2.65;1.00;;;;;;;4.83;94.56;96763.55;1597778;90;21026;-78
2022/11/21 02:12:57;;;;;;;1.25;0.93;;;;;;;4.83;94.42;96758.30;1613747;89;21366;-78
2022/11/21 02:15:28;;;;;;;1.42;0.70;;;;;;;4.79;94.00;96765.84;1597943;90;21061;-78
2022/11/21 02:17:55;;;;;;;1.98;1.12;;;;;;;4.75;93.63;96761.56;1614107;89;21402;-77
2022/11/21 02:20:27;;;;;;;2.22;0.82;;;;;;;4.72;92.88;96754.63;1597895;90;21028;-77
2022/11/21 02:23:14;;;;;;;0.55;0.50;;;;;;;4.65;92.32;96750.43;1614314;89;21450;-78
2022/11/21 02:25:44;;;;;;;1.52;0.60;;;;;;;4.62;92.90;96747.91;1597853;90;21044;-78
2022/11/21 02:28:15;;;;;;;1.25;0.53;;;;;;;4.61;92.60;96744.41;1614266;89;21397;-77
2022/11/21 02:30:43;;;;;;;2.47;0.62;;;;;;;4.64;92.84;96735.59;1592074;90;21048;-77
2022/11/21 02:33:11;;;;;;;2.12;1.62;;;;;;;4.66;93.01;96739.50;1604772;89;21024;-77
2022/11/21 02:35:41;;;;;;;2.58;1.70;;;;;;;4.69;93.18;96742.89;1597950;90;21001;-78
2022/11/21 02:38:20;;;;;;;2.47;1.42;;;;;;;4.73;93.20;96728.79;1614269;89;21026;-77
2022/11/21 02:41:08;;;;;;;1.20;0.90;;;;;;;4.75;93.05;96721.75;1597578;90;21076;-78
2022/11/21 02:43:42;;;;;;;1.05;0.62;;;;;;;4.72;92.97;96718.33;1614236;89;20992;-77
2022/11/21 02:46:10;;;;;;;1.70;0.80;;;;;;;4.72;93.01;96714.39;1597511;90;21052;-77
2022/11/21 02:48:38;;;;;;;1.57;0.78;;;;;;;4.72;92.89;96711.33;1614390;89;21007;-77
2022/11/21 02:51:04;;;;;;;0.68;0.60;;;;;;;4.69;92.88;96708.77;1576449;90;21033;-77
2022/11/21 02:53:31;;;;;;;1.12;0.60;;;;;;;4.69;93.11;96706.15;1621886;87;21147;-80
2022/11/21 02:55:57;;;;;;;0.70;0.62;;;;;;;4.69;92.93;96698.75;1615405;89;21041;-80
2022/11/21 02:58:24;;;;;;;0.55;0.40;;;;;;;4.60;92.23;96688.02;1621643;88;21019;-81
2022/11/21 03:00:51;;;;;;;1.40;0.50;;;;;;;4.49;92.38;96683.08;1624919;88;21013;-80
2022/11/21 03:03:18;;;;;;;0.78;0.53;;;;;;;4.43;92.77;96677.97;1625433;88;21110;-79
2022/11/21 03:05:45;;;;;;;0.80;0.47;;;;;;;4.38;92.89;96678.11;1625254;88;21019;-80
2022/11/21 03:08:12;;;;;;;1.65;0.78;;;;;;;4.35;92.76;96682.98;1608150;88;21469;-80
2022/11/21 03:10:38;;;;;;;0.82;0.60;;;;;;;4.31;92.99;96674.78;1609538;88;21073;-80
2022/11/21 03:13:05;;;;;;;0.80;0.60;;;;;;;4.25;92.92;96680.19;1622085;88;21044;-81
2022/11/21 03:15:33;;;;;;;0.62;0.40;;;;;;;4.18;92.81;96678.17;1611582;88;21477;-80
2022/11/21 03:18:01;;;;;;;1.12;0.62;;;;;;;4.12;93.14;96686.64;1625585;88;21058;-80
2022/11/21 03:20:33;;;;;;;2.92;0.90;;;;;;;4.07;93.36;96684.14;1651002;87;21008;-80
2022/11/21 03:23:01;;;;;;;0.85;0.50;;;;;;;4.02;93.31;96676.38;1650980;86;21020;-79
2022/11/21 03:25:29;;;;;;;1.10;0.50;;;;;;;3.99;93.55;96674.28;1577086;90;21046;-80
2022/11/21 03:27:56;;;;;;;0.75;0.50;;;;;;;3.94;94.02;96674.38;1650866;87;21067;-81
2022/11/21 03:30:26;;;;;;;0.60;0.40;;;;;;;3.89;93.70;96667.95;1648119;87;21434;-81
2022/11/21 03:32:57;;;;;;;0.60;0.47;;;;;;;3.84;93.78;96669.83;1633877;87;21060;-81
2022/11/21 03:35:24;;;;;;;0.78;0.50;;;;;;;3.78;93.78;96657.72;1643547;87;21430;-81
2022/11/21 03:37:52;;;;;;;0.65;0.45;;;;;;;3.73;94.01;96655.66;1643714;87;21020;-79
2022/11/21 03:40:20;;;;;;;0.88;0.37;;;;;;;3.70;93.99;96649.20;1643692;87;21438;-80
2022/11/21 03:42:48;;;;;;;0.42;0.40;;;;;;;3.65;93.89;96650.61;1643690;87;21073;-80
2022/11/21 03:45:14;;;;;;;0.80;0.50;;;;;;;3.65;94.51;96649.77;1643827;87;21061;-81
2022/11/21 03:47:41;;;;;;;0.68;0.50;;;;;;;3.64;93.93;96648.02;1643754;87;21036;-81
2022/11/21 03:50:07;;;;;;;0.40;0.30;;;;;;;3.63;94.06;96648.48;1643721;87;21004;-80
2022/11/21 03:52:34;;;;;;;0.70;0.50;;;;;;;3.59;94.25;96631.11;1643704;87;21040;-81
2022/11/21 03:55:00;;;;;;;0.75;0.40;;;;;;;3.59;94.02;96639.41;1640660;87;21434;-80
2022/11/21 03:57:27;;;;;;;0.50;0.40;;;;;;;3.54;94.15;96634.28;1598428;90;21440;-79
2022/11/21 03:59:54;;;;;;;0.90;0.40;;;;;;;3.51;94.09;96629.98;1651259;87;21004;-79
2022/11/21 04:02:20;;;;;;;1.40;0.70;;;;;;;3.51;94.10;96625.17;1649234;87;21063;-80
2022/11/21 04:04:47;;;;;;;1.45;0.50;;;;;;;3.51;94.19;96632.59;1651135;86;20995;-80
2022/11/21 04:07:13;;;;;;;0.93;0.47;;;;;;;3.51;94.52;96629.11;1643634;87;21024;-80
2022/11/21 04:09:40;;;;;;;1.32;0.50;;;;;;;3.49;94.18;96626.52;1643504;87;20992;-80
2022/11/21 04:12:06;;;;;;;0.75;0.40;;;;;;;3.47;94.36;96633.56;1625697;87;21510;-79
2022/11/21 04:14:34;;;;;;;1.35;0.50;;;;;;;3.48;94.60;96631.81;1642654;87;21087;-80
2022/11/21 04:17:02;;;;;;;0.80;0.45;;;;;;;3.47;94.56;96629.64;1620569;87;21023;-80
2022/11/21 04:19:28;;;;;;;0.42;0.40;;;;;;;3.47;94.55;96625.70;1643529;87;21007;-80
2022/11/21 04:21:55;;;;;;;0.37;0.30;;;;;;;3.48;94.75;96620.03;1643652;87;21019;-81
2022/11/21 04:24:21;;;;;;;0.53;0.40;;;;;;;3.50;94.58;96618.22;1643789;87;21011;-80
2022/11/21 04:26:49;;;;;;;0.68;0.37;;;;;;;3.51;94.53;96623.43;1643710;87;20989;-80
2022/11/21 04:29:16;;;;;;;0.68;0.60;;;;;;;3.52;94.50;96615.98;1643940;87;20992;-80
2022/11/21 04:31:43;;;;;;;2.55;0.40;;;;;;;3.54;94.23;96624.65;1630107;87;21080;-80
2022/11/21 04:34:09;;;;;;;1.27;0.60;;;;;;;3.56;94.22;96614.14;1643711;87;21024;-81
2022/11/21 04:36:36;;;;;;;1.02;0.50;;;;;;;3.56;94.33;96607.16;1643817;87;21000;-81
2022/11/21 04:39:03;;;;;;;3.70;0.40;;;;;;;3.60;94.39;96617.55;1643611;87;21438;-80
2022/11/21 04:41:31;;;;;;;0.70;0.40;;;;;;;3.61;94.06;96612.73;1643811;87;20992;-81
2022/11/21 04:43:58;;;;;;;0.47;0.40;;;;;;;3.57;94.12;96609.30;1643757;87;20972;-81
2022/11/21 04:46:26;;;;;;;0.37;0.30;;;;;;;3.59;94.31;96616.70;1643438;87;21486;-80
2022/11/21 04:48:52;;;;;;;1.40;0.53;;;;;;;3.59;94.37;96617.13;1643807;87;21522;-79
2022/11/21 04:51:19;;;;;;;1.17;0.60;;;;;;;3.58;94.35;96614.11;1643912;87;21013;-79
2022/11/21 04:53:45;;;;;;;1.22;0.60;;;;;;;3.56;94.42;96607.59;1643425;87;21462;-81
2022/11/21 04:56:15;;;;;;;1.00;0.55;;;;;;;3.54;94.46;96614.64;1643825;87;21040;-80
2022/11/21 04:58:41;;;;;;;1.15;0.70;;;;;;;3.47;94.40;96606.06;1643661;86;21019;-80
2022/11/21 05:01:08;;;;;;;2.52;0.85;;;;;;;3.45;94.44;96603.94;1643711;87;21501;-80
2022/11/21 05:03:36;;;;;;;1.35;0.60;;;;;;;3.43;94.88;96601.35;1643784;87;21696;-80
2022/11/21 05:06:03;;;;;;;1.55;0.60;;;;;;;3.39;94.70;96593.15;1643610;87;21283;-81
2022/11/21 05:08:29;;;;;;;1.80;0.70;;;;;;;3.33;95.04;96591.12;1643763;87;21446;-81
2022/11/21 05:13:41;;;;;;;0.65;0.42;;;;;;;3.19;95.17;96585.74;1635765;87;21012;-79
2022/11/21 05:16:08;;;;;;;0.80;0.50;;;;;;;3.12;95.65;96582.41;1643825;87;20992;-80
2022/11/21 05:18:34;;;;;;;0.70;0.50;;;;;;;3.06;96.39;96579.09;1643673;87;21000;-79
2022/11/21 05:21:02;;;;;;;0.40;0.30;;;;;;;2.97;96.79;96581.44;1643689;87;21036;-80
2022/11/21 05:23:29;;;;;;;1.37;0.40;;;;;;;2.92;96.94;96589.41;1643004;87;20996;-80
2022/11/21 05:25:56;;;;;;;0.80;0.70;;;;;;;2.83;97.77;96581.28;1643743;87;21080;-81
2022/11/21 05:28:22;;;;;;;1.55;0.68;;;;;;;2.78;98.22;96579.22;1643730;87;21071;-81
2022/11/21 05:30:48;;;;;;;1.17;0.70;;;;;;;2.73;98.58;96584.99;1636218;87;21024;-81
2022/11/21 05:33:16;;;;;;;2.15;0.80;;;;;;;2.70;99.18;96592.92;1638215;87;21012;-81
2022/11/21 05:35:43;;;;;;;1.27;0.50;;;;;;;2.67;100.00;96591.67;1643770;87;21024;-82
2022/11/21 05:38:11;;;;;;;0.65;0.50;;;;;;;2.68;99.67;96592.08;1643866;87;20972;-82
2022/11/21 05:40:37;;;;;;;2.10;0.65;;;;;;;2.66;100.00;96589.95;1643875;87;21064;-82
2022/11/21 05:45:51;;;;;;;0.68;0.50;;;;;;;2.65;99.93;96593.00;1643846;87;21454;-80
2022/11/21 05:48:18;;;;;;;0.68;0.40;;;;;;;2.63;99.98;96594.80;1643638;87;21015;-81
2022/11/21 05:50:48;;;;;;;1.27;0.53;;;;;;;2.59;100.00;96586.59;1643537;87;21465;-82
2022/11/21 05:53:16;;;;;;;1.82;0.80;;;;;;;2.56;99.64;96577.06;1640524;87;21026;-82
2022/11/21 05:55:43;;;;;;;1.27;0.80;;;;;;;2.59;99.35;96578.31;1637893;87;21008;-82
2022/11/21 05:58:09;;;;;;;1.82;0.90;;;;;;;2.60;99.70;96583.08;1637810;87;21068;-82
2022/11/21 06:00:37;;;;;;;2.05;0.70;;;;;;;2.58;100.00;96579.19;1638026;87;21100;-81
2022/11/21 06:05:50;;;;;;;1.45;0.93;;;;;;;2.58;99.83;96589.65;1638025;88;21422;-81
2022/11/21 06:08:18;;;;;;;1.98;1.00;;;;;;;2.58;100.00;96594.87;1637906;87;21032;-81
2022/11/21 06:10:44;;;;;;;4.80;1.10;;;;;;;2.58;99.63;96590.11;1637882;88;20981;-81
2022/11/21 06:13:22;;;;;;;10.43;1.50;;;;;;;2.55;99.30;96603.24;1638086;87;21031;-81
2022/11/21 06:16:07;;;;;;;1.57;0.78;;;;;;;2.52;99.24;96598.09;1636704;88;21057;-82
2022/11/21 06:18:38;;;;;;;2.83;0.62;;;;;;;2.46;98.91;96599.91;1638053;88;21454;-80
2022/11/21 06:21:17;;;;;;;1.45;0.60;;;;;;;2.41;98.96;96604.37;1637829;87;21021;-80
2022/11/21 06:23:44;;;;;;;0.68;0.50;;;;;;;2.37;99.10;96611.88;1637718;87;21009;-81
2022/11/21 06:26:14;;;;;;;0.72;0.35;;;;;;;2.32;98.49;96611.95;1637967;88;21109;-81
2022/11/21 06:28:42;;;;;;;0.65;0.50;;;;;;;2.30;98.65;96608.95;1638052;87;21103;-81
2022/11/21 06:31:16;;;;;;;0.88;0.70;;;;;;;2.26;99.09;96609.89;1626565;87;21449;-81
2022/11/21 06:33:43;;;;;;;1.17;0.43;;;;;;;2.26;99.48;96614.69;1637384;88;21044;-82
2022/11/21 06:36:16;;;;;;;0.85;0.65;;;;;;;2.27;99.11;96609.00;1638017;88;21685;-81
2022/11/21 06:38:44;;;;;;;0.65;0.47;;;;;;;2.28;99.73;96612.05;1637760;87;21024;-82
2022/11/21 06:41:19;;;;;;;0.78;0.53;;;;;;;2.30;99.33;96601.98;1637948;87;21041;-80
2022/11/21 06:43:46;;;;;;;1.15;0.40;;;;;;;2.34;98.97;96607.58;1637631;88;21049;-81
2022/11/21 06:46:14;;;;;;;0.90;0.50;;;;;;;2.38;99.05;96603.14;1631654;87;21044;-82
2022/11/21 06:48:41;;;;;;;0.85;0.55;;;;;;;2.38;99.25;96599.22;1630010;87;21032;-82
2022/11/21 06:51:16;;;;;;;0.88;0.50;;;;;;;2.42;99.16;96607.42;1644042;87;21028;-81
2022/11/21 06:53:43;;;;;;;1.10;0.55;;;;;;;2.47;99.67;96608.19;1649099;87;21041;-80
2022/11/21 06:56:10;;;;;;;2.33;0.47;;;;;;;2.49;100.00;96602.94;1643816;87;21083;-80
2022/11/21 06:58:36;;;;;;;0.75;0.50;;;;;;;2.53;99.97;96602.42;1639597;87;22213;-80
2022/11/21 07:01:09;;;;;;;1.45;0.65;;;;;;;2.58;99.73;96594.87;1637539;87;21026;-82
2022/11/21 07:03:36;;;;;;;1.90;0.60;;;;;;;2.66;100.00;96603.91;1638197;87;20993;-81
2022/11/21 07:06:03;;;;;;;3.45;0.57;;;;;;;2.69;99.58;96593.36;1636301;87;21132;-81
2022/11/21 07:08:34;;;;;;;1.02;0.47;;;;;;;2.72;99.66;96595.05;1638076;87;21410;-81
2022/11/21 07:11:04;;;;;;;0.75;0.50;;;;;;;2.73;99.44;96602.00;1636284;87;21004;-81
2022/11/21 07:13:31;;;;;;;1.02;0.60;;;;;;;2.75;99.48;96599.77;1637890;87;21008;-81
2022/11/21 07:16:07;;;;;;;1.45;0.75;;;;;;;2.80;99.24;96605.36;1635965;87;21446;-80
2022/11/21 07:18:34;;;;;;;0.88;0.50;;;;;;;2.85;99.65;96605.68;1639802;87;21044;-81
2022/11/21 07:21:04;;;;;;;1.02;0.50;;;;;;;2.87;99.30;96604.34;1639781;87;21075;-79
2022/11/21 07:23:33;;;;;;;1.05;0.60;;;;;;;2.88;99.34;96599.09;1639717;87;21111;-80
2022/11/21 07:26:03;;;;;;;5.95;0.53;;;;;;;2.88;99.60;96597.78;1639636;87;21048;-81
2022/11/21 07:28:31;;;;;;;0.68;0.50;;;;;;;2.87;99.17;96603.04;1639177;87;21012;-81
2022/11/21 07:31:02;;;;;;;2.12;1.27;;;;;;;2.89;99.56;96610.39;1629881;87;22284;-81
2022/11/21 07:33:29;;;;;;;58.00;26.10;;;;;;;2.90;99.88;96604.27;1636445;87;21024;-80
2022/11/21 07:35:56;;;;;;;5.65;3.25;;;;;;;2.93;99.16;96605.95;1639719;87;21024;-80
2022/11/21 07:38:25;;;;;;;4.97;2.50;;;;;;;2.92;99.79;96602.49;1639891;87;21020;-80
2022/11/21 07:40:51;;;;;;;3.85;2.70;;;;;;;2.90;99.06;96601.64;1639813;87;21091;-81
2022/11/21 07:43:18;;;;;;;5.75;2.72;;;;;;;2.94;99.40;96602.47;1639954;87;21407;-80
2022/11/21 07:45:45;;;;;;;5.33;2.90;;;;;;;2.97;99.32;96601.06;1639976;87;21114;-79
2022/11/21 07:48:13;;;;;;;4.15;2.58;;;;;;;2.99;99.36;96598.83;1639803;87;21525;-80
2022/11/21 07:50:39;;;;;;;3.02;2.33;;;;;;;3.00;99.28;96602.32;1633534;87;21395;-81
2022/11/21 07:53:10;;;;;;;5.35;3.10;;;;;;;3.02;99.07;96600.52;1628379;87;21048;-81
2022/11/21 07:55:37;;;;;;;5.20;2.12;;;;;;;3.07;99.86;96605.67;1631997;87;21494;-81
2022/11/21 07:58:07;;;;;;;2.47;1.60;;;;;;;3.07;99.71;96596.04;1636185;87;21012;-81
2022/11/21 08:00:38;;;;;;;3.10;1.72;;;;;;;3.08;99.15;96599.53;1632654;87;21004;-81
2022/11/21 08:03:06;;;;;;;2.72;1.92;;;;;;;3.06;99.31;96606.57;1622169;87;21040;-81
2022/11/21 08:05:43;;;;;;;2.77;1.80;;;;;;;3.07;99.39;96610.44;1634558;87;21493;-81
2022/11/21 08:08:13;;;;;;;2.10;1.30;;;;;;;3.06;99.81;96610.50;1622147;87;21059;-80
2022/11/21 08:10:42;;;;;;;2.30;1.30;;;;;;;3.04;99.31;96610.06;1634073;87;21059;-80
2022/11/21 08:13:11;;;;;;;2.52;1.47;;;;;;;3.07;99.38;96611.75;1627411;87;21008;-80
2022/11/21 08:15:38;;;;;;;2.10;1.37;;;;;;;3.09;99.19;96615.64;1621772;87;21051;-80
2022/11/21 08:18:14;;;;;;;1.80;1.37;;;;;;;3.11;99.05;96606.02;1614059;87;21064;-80
2022/11/21 08:20:41;;;;;;;2.37;1.27;;;;;;;3.15;99.68;96607.21;1622563;87;21068;-80
2022/11/21 08:23:09;;;;;;;2.70;1.70;;;;;;;3.17;99.31;96605.88;1635088;87;21447;-80
2022/11/21 08:25:40;;;;;;;3.25;1.40;;;;;;;3.19;99.01;96609.30;1640272;87;21009;-79
2022/11/21 08:28:11;;;;;;;11.05;5.78;;;;;;;3.21;99.41;96603.61;1640170;87;21457;-80
2022/11/21 08:30:40;;;;;;;7.45;3.62;;;;;;;3.23;98.90;96612.27;1634607;87;21036;-80
2022/11/21 08:33:06;;;;;;;4.00;2.00;;;;;;;3.23;99.34;96603.11;1633194;87;21040;-79
2022/11/21 08:35:37;;;;;;;2.60;1.85;;;;;;;3.25;99.11;96606.58;1639929;87;21403;-79
2022/11/21 08:38:04;;;;;;;2.83;1.57;;;;;;;3.28;99.31;96605.64;1639688;87;21012;-80
2022/11/21 08:40:32;;;;;;;2.62;1.55;;;;;;;3.29;99.15;96604.27;1637945;87;21053;-78
2022/11/21 08:43:05;;;;;;;2.67;1.50;;;;;;;3.27;99.01;96608.70;1638066;87;21394;-78
2022/11/21 08:45:34;;;;;;;2.43;1.47;;;;;;;3.25;98.87;96607.88;1636192;87;21119;-78
2022/11/21 08:48:01;;;;;;;2.45;1.40;;;;;;;3.28;99.06;96612.19;1638098;87;21068;-79
2022/11/21 08:50:28;;;;;;;4.62;1.50;;;;;;;3.29;98.82;96610.81;1635990;87;21449;-78
2022/11/21 08:53:01;;;;;;;3.00;1.77;;;;;;;3.35;98.69;96606.33;1637997;87;20989;-78
2022/11/21 08:55:29;;;;;;;1.70;1.30;;;;;;;3.35;98.78;96603.71;1633320;87;21056;-78
2022/11/21 08:57:57;;;;;;;2.00;1.22;;;;;;;3.41;98.99;96601.81;1621398;88;21419;-77
2022/11/21 09:00:23;;;;;;;1.75;1.07;;;;;;;3.47;98.66;96612.61;1647090;86;21412;-77
2022/11/21 09:02:50;;;;;;;1.10;0.80;;;;;;;3.50;98.92;96609.05;1636127;88;21049;-77
2022/11/21 09:05:16;;;;;;;1.98;1.07;;;;;;;3.54;98.57;96609.41;1636091;87;21538;-76
2022/11/21 09:07:43;;;;;;;2.05;1.12;;;;;;;3.60;98.73;96610.55;1634136;87;21087;-78
2022/11/21 09:10:10;;;;;;;3.65;1.07;;;;;;;3.70;99.04;96607.28;1636212;87;21493;-78
2022/11/21 09:12:38;;;;;;;1.30;0.90;;;;;;;3.74;98.89;96604.97;1633363;87;21047;-78
2022/11/21 09:18:02;;;;;;;1.35;0.93;;;;;;;3.74;98.04;96608.90;1637924;87;20980;-79
2022/11/21 09:20:39;;;;;;;1.57;0.80;;;;;;;3.73;98.27;96612.42;1637605;87;21032;-79
2022/11/21 09:23:09;;;;;;;1.10;0.80;;;;;;;3.68;98.03;96603.81;1633882;87;21036;-78
2022/11/21 09:25:35;;;;;;;2.87;1.05;;;;;;;3.72;98.29;96605.91;1620041;86;21101;-78
2022/11/21 09:28:05;;;;;;;0.85;0.55;;;;;;;3.70;98.08;96617.30;1623798;87;21071;-79
2022/11/21 09:30:32;;;;;;;0.90;0.70;;;;;;;3.65;97.53;96604.75;1624319;88;22139;-80
2022/11/21 09:33:01;;;;;;;0.78;0.60;;;;;;;3.61;97.31;96607.03;1627234;87;21004;-80
2022/11/21 09:35:29;;;;;;;0.80;0.60;;;;;;;3.62;97.31;96603.98;1621810;87;21040;-81
2022/11/21 09:37:57;;;;;;;0.60;0.40;;;;;;;3.60;97.74;96605.31;1616878;88;21104;-81
2022/11/21 09:40:24;;;;;;;0.93;0.53;;;;;;;3.64;97.75;96603.48;1621383;87;21045;-81
2022/11/21 09:43:30;;;;;;;1.77;0.50;;;;;;;3.61;97.83;96600.48;1622861;88;21357;-81
2022/11/21 09:46:16;;;;;;;0.90;0.60;;;;;;;3.52;97.03;96604.63;1626971;87;21145;-80
2022/11/21 09:48:51;;;;;;;1.27;0.80;;;;;;;3.54;97.66;96599.77;1623281;86;21032;-80
2022/11/21 09:51:21;;;;;;;1.42;0.90;;;;;;;3.51;97.05;96598.98;1622381;88;21463;-80
2022/11/21 09:53:59;;;;;;;2.12;0.93;;;;;;;3.51;97.53;96597.67;1623775;87;21556;-80
2022/11/21 09:56:30;;;;;;;2.05;1.12;;;;;;;3.54;98.11;96590.59;1624548;87;21490;-81
2022/11/21 09:59:30;;;;;;;1.77;1.20;;;;;;;3.57;98.49;96590.97;1617279;87;21019;-81
2022/11/21 10:01:56;;;;;;;1.22;0.95;;;;;;;3.57;98.51;96594.90;1618643;87;21488;-81
2022/11/21 10:04:25;;;;;;;2.05;1.10;;;;;;;3.58;98.16;96594.46;1631959;87;21077;-81
2022/11/21 10:07:01;;;;;;;1.57;0.90;;;;;;;3.59;98.15;96587.01;1613174;88;21023;-80
2022/11/21 10:09:43;;;;;;;1.52;0.85;;;;;;;3.62;98.60;96594.37;1632601;87;21027;-81
2022/11/21 10:12:51;;;;;;;2.20;1.25;;;;;;;3.64;98.79;96606.09;1625751;87;21043;-81
2022/11/21 10:15:50;;;;;;;1.98;1.30;;;;;;;3.67;99.08;96599.48;1626126;87;21088;-80
2022/11/21 10:18:40;;;;;;;3.15;1.32;;;;;;;3.70;98.06;96612.52;1594626;89;21124;-80
2022/11/21 10:21:33;;;;;;;2.12;1.15;;;;;;;3.67;98.84;96604.72;1603522;88;21337;-78
2022/11/21 10:24:20;;;;;;;3.05;1.10;;;;;;;3.66;98.57;96601.23;1598345;90;21041;-77
2022/11/21 10:27:00;;;;;;;1.32;1.00;;;;;;;3.72;98.50;96608.09;1630383;87;21059;-77
2022/11/21 10:29:48;;;;;;;1.02;0.82;;;;;;;3.74;98.43;96603.66;1627838;87;21043;-79
2022/11/21 10:32:25;;;;;;;2.45;0.80;;;;;;;3.74;98.19;96602.34;1625225;87;21037;-77
2022/11/21 10:35:05;;;;;;;2.00;0.80;;;;;;;3.74;98.40;96608.05;1623787;87;21492;-77
2022/11/21 10:37:38;;;;;;;1.37;0.80;;;;;;;3.76;97.92;96601.87;1622196;87;21078;-78
2022/11/21 10:40:15;;;;;;;1.17;0.88;;;;;;;3.77;97.81;96607.52;1622284;87;21072;-79
2022/11/21 10:42:56;;;;;;;5.30;2.25;;;;;;;3.77;98.00;96602.28;1622364;87;21109;-79
2022/11/21 10:45:24;;;;;;;3.58;2.25;;;;;;;3.82;97.83;96599.09;1625856;87;21119;-80
2022/11/21 10:47:52;;;;;;;1.22;0.70;;;;;;;3.88;98.22;96597.22;1617358;87;21088;-81
2022/11/21 10:50:33;;;;;;;3.25;0.93;;;;;;;3.89;97.97;96601.12;1617452;87;21003;-80
2022/11/21 10:56:20;;;;;;;1.67;1.00;;;;;;;3.89;96.88;96601.55;1625015;87;20994;-81
2022/11/21 10:58:56;;;;;;;1.15;0.80;;;;;;;3.91;97.04;96607.16;1617223;87;21036;-79
2022/11/21 11:01:32;;;;;;;1.57;0.88;;;;;;;3.95;96.56;96606.19;1627455;87;21513;-80
2022/11/21 11:04:10;;;;;;;1.25;0.72;;;;;;;3.99;96.75;96609.63;1639514;87;21410;-80
2022/11/21 11:06:43;;;;;;;1.25;0.60;;;;;;;4.04;96.04;96601.63;1641129;86;21096;-80
2022/11/21 11:09:29;;;;;;;0.93;0.70;;;;;;;4.08;95.88;96596.25;1620909;87;21043;-79
2022/11/21 11:15:23;;;;;;;0.50;0.50;;;;;;;4.26;96.08;96587.93;1627492;87;20949;-77
2022/11/21 11:18:00;;;;;;;0.98;0.72;;;;;;;4.38;95.31;96588.05;1625920;87;21050;-80
2022/11/21 11:20:41;;;;;;;2.60;0.50;;;;;;;4.47;95.85;96572.93;1633083;87;21465;-78
2022/11/21 11:23:22;;;;;;;1.47;1.07;;;;;;;4.61;96.19;96576.46;1624047;87;21028;-81
2022/11/21 11:25:56;;;;;;;1.95;1.55;;;;;;;4.77;96.27;96582.58;1626276;87;21072;-78
2022/11/21 11:28:25;;;;;;;3.40;1.67;;;;;;;4.94;96.26;96584.70;1620223;87;21093;-72
2022/11/21 11:30:54;;;;;;;3.62;1.85;;;;;;;5.03;96.35;96582.28;1631193;87;21007;-77
2022/11/21 11:33:34;;;;;;;1.95;1.15;;;;;;;5.17;96.57;96583.16;1624247;87;21071;-72
2022/11/21 11:36:30;;;;;;;2.98;1.70;;;;;;;5.23;96.16;96577.70;1635990;87;20996;-72
2022/11/21 11:38:59;;;;;;;3.02;1.22;;;;;;;5.44;96.67;96580.56;1635099;87;21072;-71
2022/11/21 11:47:38;;;;;;;2.98;1.00;;;;;;;5.50;93.88;96583.02;1634151;87;21044;-69
2022/11/21 11:50:13;;;;;;;3.27;1.60;;;;;;;5.57;93.93;96580.18;1617565;87;21008;-70
2022/11/21 11:53:05;;;;;;;1.45;0.70;;;;;;;5.59;94.50;96582.29;1617013;87;21437;-69
2022/11/21 11:55:42;;;;;;;0.80;0.60;;;;;;;5.51;90.93;96578.16;1628103;87;21036;-69
2022/11/21 11:58:31;;;;;;;0.80;0.80;;;;;;;5.45;91.30;96586.24;1574152;90;21106;-70
2022/11/21 12:01:09;;;;;;;0.80;0.65;;;;;;;5.40;90.59;96583.75;1611846;88;21052;-71
2022/11/21 12:03:58;;;;;;;0.60;0.50;;;;;;;5.46;91.77;96589.71;1615726;88;21064;-70
2022/11/21 12:06:39;;;;;;;1.05;0.80;;;;;;;5.45;91.61;96593.25;1619218;87;21036;-70
2022/11/21 12:09:41;;;;;;;1.55;0.80;;;;;;;5.41;91.18;96589.40;1613434;88;21664;-71
2022/11/21 12:12:16;;;;;;;1.70;1.10;;;;;;;5.40;90.86;96598.20;1610078;88;21040;-70
2022/11/21 12:17:44;;;;;;;2.92;1.00;;;;;;;5.41;91.11;96595.97;1606424;88;21040;-70
2022/11/21 12:20:35;;;;;;;1.77;1.02;;;;;;;5.37;91.11;96586.94;1611811;87;21474;-72
2022/11/21 12:23:03;;;;;;;1.65;1.05;;;;;;;5.34;89.68;96594.45;1610716;88;21095;-70
2022/11/21 12:25:44;;;;;;;2.30;1.22;;;;;;;5.32;90.52;96587.53;1619193;88;21021;-70